Terminal Aerodrome Forecast
Issued by NWS Denver/Boulder, CO

Home | Current Version | Previous Version | Text Only | Print | Product List | Glossary On
Versions: 1 2 3 4 5 6 7 8 9 10 11 12 13 14 15 16 17 18 19 20 21 22 23 24 25 26 27 28 29 30 31 32 33 34 35 36 37 38 39 40 41 42 43 44 45 46 47 48 49 50
000
FTUS45 KBOU 012221 AAG
TAFDEN
TAF AMD
KDEN 012221Z 0122/0224 35008KT P6SM -TSRA SCT035 BKN050CB BKN080
     FM012300 28012KT P6SM VCTS SCT030CB BKN060 BKN110
      TEMPO 0123/0201 VRB25G35KT 5SM -TSRA BKN030CB
     FM020300 18010KT P6SM SCT070 BKN110
     FM020700 20012KT P6SM FEW070 SCT110
     FM021400 24008KT P6SM FEW120 SCT200
     FM022000 34008KT P6SM SCT080 BKN150=

USA.gov is the U.S. government's official web portal to all federal, state and local government web resources and services.